KFMH/FMH METAR and TAF weather

Enter ICAO airport designator
Station Type Date Time Source
KFMH METAR 2022/06/25 23:45 UTC NOAA

KFMH 252345Z 27006KT 10SM CLR 23/18 A3009


Station Type Date Time Source
KFMH Decoded METAR 2022/06/25 23:45 UTC NOAA

Otis Air National Guard Base, MA, United States (KFMH) 41-39N 070-31W
Jun 25, 2022 - 07:45 PM EDT / 2022.06.25 2345 UTC
Wind: from the W (270 degrees) at 7 MPH (6 KT):0
Visibility: 10 mile(s):0
Sky conditions: clear
Temperature: 73 F (23 C)
Dew Point: 64 F (18 C)
Relative Humidity: 73%
Pressure (altimeter): 30.09 in. Hg (1018 hPa)
ob: KFMH 252345Z 27006KT 10SM CLR 23/18 A3009
cycle: 0

Station Type Date Time Source
KFMH TAF 2022/06/25 18:39 UTC NOAA

KFMH 251736Z 2518/2618 05008KT P6SM FEW050
FM251900 17007KT P6SM FEW250
FM260400 23004KT P6SM BKN003
FM260800 22004KT 2SM BR BKN003
FM261300 23006KT P6SM SCT250

Example: see airport list